createdAt,value
2023-07-02T00:00:11.292Z,19.80
2023-07-02T00:03:01.013Z,19.30
2023-07-02T00:05:28.989Z,19.90
2023-07-02T00:07:56.894Z,20.40
2023-07-02T00:10:24.708Z,19.90
2023-07-02T00:12:52.369Z,19.00
2023-07-02T00:15:20.045Z,19.40
2023-07-02T00:17:47.680Z,18.40
2023-07-02T00:20:15.335Z,18.00
2023-07-02T00:22:42.935Z,18.50
2023-07-02T00:25:10.552Z,20.80
2023-07-02T00:27:38.170Z,18.80
2023-07-02T00:30:06.381Z,21.40
2023-07-02T00:32:33.973Z,19.60
2023-07-02T00:35:01.583Z,20.70
2023-07-02T00:37:29.177Z,19.70
2023-07-02T00:39:57.035Z,19.50
2023-07-02T00:42:24.615Z,18.40
2023-07-02T00:44:52.193Z,18.80
2023-07-02T00:47:19.815Z,18.70
2023-07-02T00:49:47.475Z,19.70
2023-07-02T00:52:15.938Z,20.50
2023-07-02T00:54:43.581Z,18.60
2023-07-02T00:57:11.222Z,19.50
2023-07-02T00:59:38.976Z,18.90
2023-07-02T01:02:06.729Z,17.10
2023-07-02T01:04:34.494Z,17.40
2023-07-02T01:07:02.158Z,19.60
2023-07-02T01:09:29.844Z,20.40
2023-07-02T01:12:01.093Z,20.30
2023-07-02T01:14:49.207Z,20.20
2023-07-02T01:22:17.010Z,20.60
2023-07-02T01:24:45.288Z,20.10
2023-07-02T01:27:12.958Z,18.80
2023-07-02T01:29:40.526Z,19.40
2023-07-02T01:32:08.925Z,20.00
2023-07-02T01:34:36.604Z,18.30
2023-07-02T01:37:05.418Z,18.90
2023-07-02T01:39:33.264Z,18.00
2023-07-02T01:42:18.622Z,19.40
2023-07-02T01:44:48.375Z,18.10
2023-07-02T01:47:16.006Z,18.90
2023-07-02T01:49:43.679Z,19.90
2023-07-02T01:52:11.408Z,19.60
2023-07-02T01:54:39.046Z,21.30
2023-07-02T01:57:06.696Z,20.50
2023-07-02T01:59:34.361Z,19.80
2023-07-02T02:02:02.573Z,18.30
2023-07-02T02:04:30.285Z,19.40
2023-07-02T02:06:57.947Z,18.40
2023-07-02T02:09:25.608Z,18.20
2023-07-02T02:11:53.200Z,18.10
2023-07-02T02:14:21.273Z,18.00
2023-07-02T02:16:49.137Z,20.30
2023-07-02T02:19:17.603Z,20.20
2023-07-02T02:21:45.238Z,20.50
2023-07-02T02:24:12.847Z,21.00
2023-07-02T02:26:40.498Z,18.20
2023-07-02T02:29:08.990Z,20.70
2023-07-02T02:31:36.652Z,19.70
2023-07-02T02:34:04.808Z,20.60
2023-07-02T02:36:32.402Z,20.50
2023-07-02T02:39:00.016Z,21.90
2023-07-02T02:41:27.749Z,20.50
2023-07-02T02:43:55.357Z,19.00
2023-07-02T02:46:23.702Z,20.70
2023-07-02T02:48:51.829Z,19.50
2023-07-02T02:51:19.539Z,19.50
2023-07-02T02:53:47.189Z,21.40
2023-07-02T02:56:14.941Z,17.70
2023-07-02T02:58:45.059Z,20.00
2023-07-02T03:01:13.045Z,20.50
2023-07-02T03:03:42.008Z,19.30
2023-07-02T03:06:09.670Z,19.50
2023-07-02T03:08:37.230Z,18.90
2023-07-02T03:11:04.869Z,20.10
2023-07-02T03:13:32.490Z,19.10
2023-07-02T03:16:00.344Z,19.50
2023-07-02T03:18:28.065Z,20.80
2023-07-02T03:20:55.642Z,18.50
2023-07-02T03:23:23.605Z,18.80
2023-07-02T03:25:51.365Z,18.80
2023-07-02T03:28:18.979Z,18.70
2023-07-02T03:30:46.841Z,17.90
2023-07-02T03:33:14.590Z,18.30
2023-07-02T03:35:42.460Z,18.10
2023-07-02T03:38:10.081Z,14.70
2023-07-02T03:40:37.793Z,16.80
2023-07-02T03:43:06.028Z,17.00
2023-07-02T03:45:34.003Z,17.20
2023-07-02T03:48:01.656Z,14.80
2023-07-02T03:50:29.319Z,16.40
2023-07-02T03:52:56.928Z,14.70
2023-07-02T03:55:24.654Z,14.00
2023-07-02T03:57:52.285Z,16.50
2023-07-02T04:00:19.994Z,15.30
2023-07-02T04:02:47.639Z,15.80
2023-07-02T04:05:15.461Z,15.20
2023-07-02T04:07:43.204Z,16.10
2023-07-02T04:10:10.868Z,17.80
2023-07-02T04:12:38.612Z,15.40
2023-07-02T04:15:06.988Z,15.30
2023-07-02T04:17:34.762Z,15.30
2023-07-02T04:20:03.535Z,13.60
2023-07-02T04:22:31.204Z,12.10
2023-07-02T04:25:02.496Z,12.30
2023-07-02T04:27:50.499Z,13.40
2023-07-02T04:30:19.374Z,11.00
2023-07-02T04:32:47.046Z,11.80
2023-07-02T04:35:14.868Z,8.70
2023-07-02T04:37:42.484Z,9.60
2023-07-02T04:40:10.495Z,10.60
2023-07-02T04:42:43.273Z,9.70
2023-07-02T04:45:11.113Z,12.00
2023-07-02T04:47:38.784Z,11.40
2023-07-02T04:50:07.096Z,9.50
2023-07-02T04:52:34.885Z,11.90
2023-07-02T04:55:04.245Z,10.20
2023-07-02T04:57:32.200Z,9.00
2023-07-02T04:59:59.997Z,7.70
2023-07-02T05:02:27.945Z,9.40
2023-07-02T05:04:55.916Z,9.30
2023-07-02T05:07:23.869Z,9.00
2023-07-02T05:09:51.536Z,6.90
2023-07-02T05:12:20.061Z,7.90
2023-07-02T05:14:48.012Z,9.50
2023-07-02T05:17:15.648Z,7.70
2023-07-02T05:19:43.278Z,7.50
2023-07-02T05:22:11.015Z,8.90
2023-07-02T05:24:38.719Z,7.90
2023-07-02T05:27:06.416Z,7.90
2023-07-02T05:29:34.081Z,7.40
2023-07-02T05:32:02.090Z,7.30
2023-07-02T05:34:30.697Z,6.10
2023-07-02T05:36:58.370Z,8.30
2023-07-02T05:39:26.192Z,7.80
2023-07-02T05:41:54.104Z,6.60
2023-07-02T05:44:21.836Z,6.10
2023-07-02T05:46:49.777Z,6.10
2023-07-02T05:49:17.443Z,5.50
2023-07-02T05:51:45.167Z,4.80
2023-07-02T05:54:12.785Z,4.80
2023-07-02T05:56:40.483Z,6.00
2023-07-02T05:59:08.155Z,6.20
2023-07-02T06:01:35.773Z,5.10
2023-07-02T06:04:03.589Z,5.80
2023-07-02T06:06:31.246Z,6.00
2023-07-02T06:08:58.863Z,5.90
2023-07-02T06:11:26.518Z,5.90
2023-07-02T06:13:54.117Z,6.00
2023-07-02T06:16:21.814Z,5.90
2023-07-02T06:18:49.506Z,5.50
2023-07-02T06:21:17.185Z,5.20
2023-07-02T06:23:45.072Z,4.80
2023-07-02T06:26:12.710Z,4.60
2023-07-02T06:28:40.700Z,5.10
2023-07-02T06:31:08.565Z,4.60
2023-07-02T06:33:40.176Z,5.30
2023-07-02T06:36:07.891Z,5.50
2023-07-02T06:38:35.523Z,5.80
2023-07-02T06:41:05.050Z,5.50
2023-07-02T06:46:00.209Z,4.30
2023-07-02T06:48:27.951Z,4.90
2023-07-02T06:50:57.069Z,3.90
2023-07-02T06:53:24.662Z,3.00
2023-07-02T06:55:52.435Z,4.20
2023-07-02T06:58:20.068Z,4.60
2023-07-02T07:00:47.983Z,4.20
2023-07-02T07:03:17.695Z,4.70
2023-07-02T07:05:47.713Z,3.30
2023-07-02T07:08:15.322Z,4.20
2023-07-02T07:10:43.010Z,3.90
2023-07-02T07:13:11.949Z,3.80
2023-07-02T07:15:42.667Z,4.10
2023-07-02T07:18:10.764Z,3.30
2023-07-02T07:20:40.121Z,3.30
2023-07-02T07:23:07.738Z,3.70
2023-07-02T07:25:35.418Z,3.80
2023-07-02T07:28:03.129Z,3.90
2023-07-02T07:30:33.383Z,3.30
2023-07-02T07:33:01.248Z,3.30
2023-07-02T07:35:28.950Z,3.20
2023-07-02T07:37:56.676Z,3.30
2023-07-02T07:40:24.536Z,4.10
2023-07-02T07:42:52.155Z,2.40
2023-07-02T07:45:19.817Z,3.00
2023-07-02T07:47:47.433Z,3.00
2023-07-02T07:50:15.134Z,3.20
2023-07-02T07:52:43.629Z,2.60
2023-07-02T07:55:11.580Z,2.60
2023-07-02T07:57:39.285Z,2.30
2023-07-02T08:00:07.578Z,2.90
2023-07-02T08:02:35.433Z,2.60
2023-07-02T08:05:06.456Z,3.10
2023-07-02T08:07:34.435Z,3.10
2023-07-02T08:10:02.556Z,2.80
2023-07-02T08:12:30.507Z,3.20
2023-07-02T08:14:58.378Z,1.90
2023-07-02T08:17:26.171Z,2.10
2023-07-02T08:19:53.974Z,1.80
2023-07-02T08:22:21.666Z,1.90
2023-07-02T08:24:49.362Z,2.70
2023-07-02T08:27:17.927Z,2.20
2023-07-02T08:29:47.064Z,2.10
2023-07-02T08:32:15.691Z,2.20
2023-07-02T08:34:43.476Z,2.30
2023-07-02T08:37:11.211Z,1.80
2023-07-02T08:39:39.412Z,2.80
2023-07-02T08:42:07.104Z,2.40
2023-07-02T08:44:34.888Z,2.70
2023-07-02T08:47:03.420Z,2.40
2023-07-02T08:49:31.074Z,3.20
2023-07-02T08:51:59.385Z,2.20
2023-07-02T08:54:27.156Z,3.20
2023-07-02T08:56:54.818Z,3.50
2023-07-02T08:59:22.809Z,3.40
2023-07-02T09:01:52.210Z,3.60
2023-07-02T09:04:25.777Z,3.90
2023-07-02T09:07:08.304Z,3.30
2023-07-02T09:09:50.226Z,3.50
2023-07-02T09:12:31.113Z,3.90
2023-07-02T09:15:00.741Z,4.60
2023-07-02T09:17:30.509Z,4.10
2023-07-02T09:19:59.182Z,4.30
2023-07-02T09:22:27.406Z,3.40
2023-07-02T09:24:57.283Z,3.70
2023-07-02T09:27:42.669Z,5.00
2023-07-02T09:30:14.863Z,5.40
2023-07-02T09:32:47.050Z,4.50
2023-07-02T09:35:15.365Z,4.50
2023-07-02T09:37:44.461Z,4.80
2023-07-02T09:40:12.530Z,4.20
2023-07-02T09:42:41.303Z,4.80
2023-07-02T09:45:10.290Z,2.90
2023-07-02T09:50:12.117Z,3.10
2023-07-02T09:52:40.630Z,3.30
2023-07-02T09:55:09.737Z,5.70
2023-07-02T09:57:38.927Z,3.40
2023-07-02T10:00:07.507Z,2.70
2023-07-02T10:02:35.456Z,3.30
2023-07-02T10:05:03.546Z,2.80
2023-07-02T10:07:34.012Z,2.60
2023-07-02T10:10:02.196Z,2.60
2023-07-02T10:12:31.214Z,2.80
2023-07-02T10:15:00.243Z,2.60
2023-07-02T10:17:31.128Z,3.30
2023-07-02T10:20:01.369Z,2.50
2023-07-02T10:22:29.234Z,2.90
2023-07-02T10:24:59.467Z,2.90
2023-07-02T10:27:35.286Z,2.80
2023-07-02T10:30:04.717Z,2.90
2023-07-02T10:32:33.762Z,3.20
2023-07-02T10:35:33.968Z,2.70
2023-07-02T10:38:02.110Z,2.80
2023-07-02T10:40:30.693Z,3.00
2023-07-02T10:42:58.508Z,3.20
2023-07-02T10:45:33.920Z,3.00
2023-07-02T10:48:11.134Z,2.80
2023-07-02T10:50:38.880Z,2.70
2023-07-02T10:53:06.590Z,2.50
2023-07-02T10:55:34.358Z,2.80
2023-07-02T10:58:07.768Z,2.50
2023-07-02T11:00:49.658Z,2.60
2023-07-02T11:03:18.589Z,2.40
2023-07-02T11:05:48.193Z,2.50
2023-07-02T11:08:16.519Z,2.70
2023-07-02T11:10:44.776Z,1.30
2023-07-02T11:13:20.469Z,1.80
2023-07-02T11:15:49.677Z,2.00
2023-07-02T11:18:19.609Z,1.90
2023-07-02T11:20:48.407Z,2.20
2023-07-02T11:23:26.326Z,2.20
2023-07-02T11:26:02.198Z,2.30
2023-07-02T11:28:32.837Z,2.10
2023-07-02T11:31:01.580Z,2.10
2023-07-02T11:33:39.835Z,2.20
2023-07-02T11:36:09.175Z,2.20
2023-07-02T11:38:40.027Z,1.90
2023-07-02T11:41:07.827Z,2.60
2023-07-02T11:43:35.693Z,2.10
2023-07-02T11:46:04.035Z,2.00
2023-07-02T11:48:31.964Z,2.10
2023-07-02T11:50:59.796Z,2.70
2023-07-02T11:53:28.296Z,2.40
2023-07-02T11:55:56.339Z,2.30
2023-07-02T11:58:24.512Z,2.20
2023-07-02T12:00:52.729Z,2.30
2023-07-02T12:03:20.650Z,2.30
2023-07-02T12:05:48.697Z,1.60
2023-07-02T12:08:16.920Z,2.30
2023-07-02T12:10:45.228Z,2.20
2023-07-02T12:13:13.163Z,2.00
2023-07-02T12:15:41.470Z,2.20
2023-07-02T12:18:10.626Z,1.70
2023-07-02T12:20:38.970Z,2.00
2023-07-02T12:23:07.433Z,2.00
2023-07-02T12:25:35.797Z,1.80
2023-07-02T12:28:05.709Z,2.00
2023-07-02T12:30:34.160Z,1.80
2023-07-02T12:35:30.260Z,1.90
2023-07-02T12:37:58.116Z,1.40
2023-07-02T12:40:25.784Z,1.00
2023-07-02T12:42:53.462Z,0.80
2023-07-02T12:45:21.992Z,0.80
2023-07-02T12:47:50.013Z,0.90
2023-07-02T12:50:17.884Z,0.80
2023-07-02T12:52:45.515Z,0.90
2023-07-02T12:55:13.224Z,0.80
2023-07-02T12:57:40.880Z,1.10
2023-07-02T13:00:09.254Z,1.00
2023-07-02T13:02:43.855Z,1.00
2023-07-02T13:05:21.961Z,1.00
2023-07-02T13:07:49.639Z,1.10
2023-07-02T13:10:17.221Z,1.10
2023-07-02T13:12:44.952Z,1.00
2023-07-02T13:15:12.812Z,0.90
2023-07-02T13:17:40.511Z,1.20
2023-07-02T13:20:10.222Z,1.20
2023-07-02T13:22:38.014Z,1.10
2023-07-02T13:25:06.704Z,1.20
2023-07-02T13:27:34.625Z,1.20
2023-07-02T13:30:03.039Z,1.50
2023-07-02T13:32:32.203Z,1.30
2023-07-02T13:35:00.450Z,1.20
2023-07-02T13:37:28.306Z,1.10
2023-07-02T13:39:56.398Z,1.20
2023-07-02T13:42:24.588Z,1.00
2023-07-02T13:44:52.600Z,1.40
2023-07-02T13:47:20.965Z,1.30
2023-07-02T13:49:49.327Z,1.30
2023-07-02T13:52:17.567Z,1.50
2023-07-02T13:54:45.995Z,1.20
2023-07-02T13:57:14.144Z,1.30
2023-07-02T13:59:42.344Z,1.10
2023-07-02T14:02:10.163Z,1.60
2023-07-02T14:04:37.816Z,1.40
2023-07-02T14:07:05.948Z,1.40
2023-07-02T14:09:33.600Z,1.00
2023-07-02T14:12:01.184Z,1.40
2023-07-02T14:14:28.817Z,1.50
2023-07-02T14:16:56.502Z,1.60
2023-07-02T14:19:24.372Z,1.40
2023-07-02T14:21:52.105Z,1.60
2023-07-02T14:24:20.108Z,1.20
2023-07-02T14:26:47.995Z,1.20
2023-07-02T14:29:15.641Z,1.80
2023-07-02T14:31:43.279Z,1.30
2023-07-02T14:34:11.026Z,1.40
2023-07-02T14:36:38.639Z,1.60
2023-07-02T14:39:06.234Z,1.50
2023-07-02T14:41:33.843Z,1.90
2023-07-02T14:44:01.451Z,1.20
2023-07-02T14:46:29.077Z,1.10
2023-07-02T14:48:56.817Z,0.90
2023-07-02T14:51:24.635Z,1.10
2023-07-02T14:53:52.744Z,1.00
2023-07-02T14:56:20.357Z,1.60
2023-07-02T14:58:48.161Z,1.20
2023-07-02T15:01:19.917Z,1.10
2023-07-02T15:03:48.205Z,1.30
2023-07-02T15:06:18.785Z,1.40
2023-07-02T15:08:46.915Z,1.20
2023-07-02T15:11:16.463Z,1.00
2023-07-02T15:13:44.826Z,1.40
2023-07-02T15:16:13.638Z,1.20
2023-07-02T15:18:41.894Z,1.00
2023-07-02T15:21:09.907Z,1.00
2023-07-02T15:23:37.893Z,1.20
2023-07-02T15:26:07.088Z,1.40
2023-07-02T15:28:37.522Z,1.20
2023-07-02T15:31:10.495Z,1.00
2023-07-02T15:33:39.533Z,1.40
2023-07-02T15:36:10.804Z,1.00
2023-07-02T15:38:38.793Z,1.00
2023-07-02T15:41:10.205Z,1.10
2023-07-02T15:43:38.410Z,1.10
2023-07-02T15:46:06.948Z,1.20
2023-07-02T15:48:35.258Z,1.10
2023-07-02T15:53:33.549Z,1.10
2023-07-02T15:56:01.826Z,1.10
2023-07-02T15:58:31.504Z,1.00
2023-07-02T16:01:19.729Z,1.10
2023-07-02T16:03:48.143Z,1.10
2023-07-02T16:06:17.167Z,1.00
2023-07-02T16:08:46.342Z,1.20
2023-07-02T16:11:15.139Z,1.00
2023-07-02T16:13:44.136Z,1.10
2023-07-02T16:16:13.265Z,1.40
2023-07-02T16:21:11.737Z,1.30
2023-07-02T16:23:40.593Z,1.10
2023-07-02T16:26:10.987Z,1.20
2023-07-02T16:28:40.098Z,1.20
2023-07-02T16:31:11.308Z,1.20
2023-07-02T16:33:40.011Z,1.10
2023-07-02T16:36:11.040Z,1.40
2023-07-02T16:38:39.543Z,1.30
2023-07-02T16:41:07.759Z,1.20
2023-07-02T16:43:35.779Z,1.20
2023-07-02T16:46:04.856Z,1.30
2023-07-02T16:48:33.302Z,1.30
2023-07-02T16:51:04.642Z,1.10
2023-07-02T16:53:33.626Z,1.30
2023-07-02T16:56:04.593Z,1.40
2023-07-02T16:58:33.919Z,1.10
2023-07-02T17:01:04.819Z,1.10
2023-07-02T17:03:33.341Z,1.20
2023-07-02T17:08:38.691Z,1.30
2023-07-02T17:11:08.291Z,1.50
2023-07-02T17:13:36.746Z,1.40
2023-07-02T17:16:06.125Z,1.20
2023-07-02T17:18:37.782Z,1.70
2023-07-02T17:21:05.422Z,1.40
2023-07-02T17:23:33.091Z,1.70
2023-07-02T17:26:03.103Z,1.60
2023-07-02T17:28:31.371Z,1.50
2023-07-02T17:30:59.337Z,1.40
2023-07-02T17:33:27.727Z,1.50
2023-07-02T17:35:55.867Z,1.40
2023-07-02T17:38:24.055Z,1.40
2023-07-02T17:40:51.936Z,1.80
2023-07-02T17:43:19.840Z,1.40
2023-07-02T17:45:55.181Z,1.60
2023-07-02T17:48:22.912Z,1.60
2023-07-02T17:50:55.426Z,1.90
2023-07-02T17:53:23.189Z,1.60
2023-07-02T17:55:51.312Z,1.70
2023-07-02T17:58:19.320Z,1.70
2023-07-02T18:00:49.757Z,1.80
2023-07-02T18:03:17.554Z,1.90
2023-07-02T18:05:45.352Z,2.10
2023-07-02T18:08:13.007Z,2.00
2023-07-02T18:10:40.749Z,1.70
2023-07-02T18:13:08.853Z,1.80
2023-07-02T18:15:36.474Z,2.30
2023-07-02T18:18:04.178Z,2.00
2023-07-02T18:20:31.797Z,1.80
2023-07-02T18:22:59.427Z,2.00
2023-07-02T18:25:27.057Z,2.10
2023-07-02T18:28:05.159Z,2.40
2023-07-02T18:30:32.826Z,2.40
2023-07-02T18:33:01.063Z,3.00
2023-07-02T18:35:28.731Z,2.80
2023-07-02T18:37:56.309Z,3.10
2023-07-02T18:40:24.048Z,3.00
2023-07-02T18:42:51.824Z,2.90
2023-07-02T18:45:19.517Z,3.40
2023-07-02T18:47:47.212Z,3.60
2023-07-02T18:50:16.278Z,4.20
2023-07-02T18:52:45.489Z,5.70
2023-07-02T18:55:13.999Z,5.80
2023-07-02T18:57:41.605Z,6.20
2023-07-02T19:00:10.531Z,6.30
2023-07-02T19:02:41.094Z,6.00
2023-07-02T19:05:09.417Z,6.10
2023-07-02T19:07:37.433Z,5.80
2023-07-02T19:10:05.519Z,4.90
2023-07-02T19:12:33.208Z,4.90
2023-07-02T19:15:00.809Z,5.00
2023-07-02T19:17:28.448Z,4.40
2023-07-02T19:19:56.139Z,4.50
2023-07-02T19:22:23.920Z,4.70
2023-07-02T19:24:51.522Z,4.80
2023-07-02T19:27:19.128Z,4.50
2023-07-02T19:29:49.872Z,4.40
2023-07-02T19:32:17.796Z,4.90
2023-07-02T19:34:45.502Z,4.30
2023-07-02T19:37:13.249Z,4.40
2023-07-02T19:39:41.020Z,4.30
2023-07-02T19:42:08.707Z,4.40
2023-07-02T19:44:36.290Z,4.20
2023-07-02T19:47:04.228Z,4.20
2023-07-02T19:49:31.872Z,5.40
2023-07-02T19:52:00.084Z,5.50
2023-07-02T19:54:27.734Z,5.30
2023-07-02T19:56:56.255Z,5.60
2023-07-02T19:59:25.632Z,5.80
2023-07-02T20:01:53.251Z,5.70
2023-07-02T20:04:22.855Z,6.90
2023-07-02T20:06:50.977Z,6.40
2023-07-02T20:09:18.734Z,5.10
2023-07-02T20:11:46.361Z,6.40
2023-07-02T20:14:15.298Z,7.10
2023-07-02T20:16:44.125Z,7.50
2023-07-02T20:19:14.688Z,7.20
2023-07-02T20:21:42.303Z,8.00
2023-07-02T20:24:10.022Z,6.90
2023-07-02T20:26:37.773Z,7.90
2023-07-02T20:29:05.423Z,8.50
2023-07-02T20:31:33.141Z,9.70
2023-07-02T20:34:04.168Z,9.80
2023-07-02T20:36:33.139Z,13.50
2023-07-02T20:39:00.756Z,12.00
2023-07-02T20:41:29.469Z,11.80
2023-07-02T20:43:57.594Z,9.50
2023-07-02T20:46:25.793Z,11.00
2023-07-02T20:48:53.484Z,12.20
2023-07-02T20:51:21.364Z,11.00
2023-07-02T20:53:49.125Z,11.00
2023-07-02T20:56:16.908Z,10.40
2023-07-02T20:58:44.677Z,8.90
2023-07-02T21:01:12.973Z,11.10
2023-07-02T21:03:40.731Z,13.30
2023-07-02T21:06:09.818Z,12.80
2023-07-02T21:08:37.856Z,12.40
2023-07-02T21:11:16.626Z,11.20
2023-07-02T21:13:55.235Z,9.70
2023-07-02T21:16:23.616Z,9.10
2023-07-02T21:18:51.536Z,8.10
2023-07-02T21:21:19.657Z,9.10
2023-07-02T21:23:47.250Z,8.00
2023-07-02T21:26:16.726Z,8.50
2023-07-02T21:28:44.361Z,8.30
2023-07-02T21:31:14.861Z,7.80
2023-07-02T21:33:42.613Z,8.10
2023-07-02T21:36:10.299Z,7.40
2023-07-02T21:38:39.694Z,6.70
2023-07-02T21:41:08.637Z,7.00
2023-07-02T21:43:36.303Z,6.80
2023-07-02T21:46:05.878Z,6.60
2023-07-02T21:48:34.158Z,6.40
2023-07-02T21:51:01.776Z,6.60
2023-07-02T21:53:29.373Z,6.40
2023-07-02T21:55:57.654Z,5.50
2023-07-02T21:58:25.283Z,6.00
2023-07-02T22:00:52.867Z,6.70
2023-07-02T22:03:20.445Z,5.40
2023-07-02T22:05:55.530Z,5.60
2023-07-02T22:08:23.512Z,6.40
2023-07-02T22:10:52.231Z,6.90
2023-07-02T22:13:20.738Z,6.20
2023-07-02T22:15:48.542Z,5.90
2023-07-02T22:18:16.435Z,6.80
2023-07-02T22:20:44.772Z,6.70
2023-07-02T22:23:12.648Z,7.90
2023-07-02T22:25:41.691Z,6.70
2023-07-02T22:28:09.705Z,8.80
2023-07-02T22:30:37.344Z,8.50
2023-07-02T22:33:05.252Z,7.60
2023-07-02T22:35:33.275Z,7.00
2023-07-02T22:38:00.883Z,7.20
2023-07-02T22:40:28.530Z,7.10
2023-07-02T22:42:56.359Z,7.20
2023-07-02T22:45:23.989Z,7.60
2023-07-02T22:47:51.621Z,8.00
2023-07-02T22:50:19.335Z,8.30
2023-07-02T22:52:47.626Z,8.90
2023-07-02T22:55:15.389Z,8.20
2023-07-02T22:57:43.277Z,9.10
2023-07-02T23:00:18.314Z,9.00
2023-07-02T23:02:47.213Z,9.10
2023-07-02T23:05:19.460Z,8.50
2023-07-02T23:07:47.906Z,8.30
2023-07-02T23:10:16.720Z,9.20
2023-07-02T23:12:47.581Z,7.50
2023-07-02T23:15:17.280Z,8.30
2023-07-02T23:20:14.456Z,7.40
2023-07-02T23:22:43.541Z,8.20
2023-07-02T23:25:13.816Z,8.20
2023-07-02T23:27:43.178Z,7.90
2023-07-02T23:30:13.952Z,7.80
2023-07-02T23:32:41.888Z,7.90
2023-07-02T23:35:11.175Z,8.40
2023-07-02T23:37:39.567Z,8.00
2023-07-02T23:40:08.396Z,7.50
2023-07-02T23:42:37.984Z,6.90
2023-07-02T23:45:08.386Z,7.60
2023-07-02T23:47:36.061Z,6.40
2023-07-02T23:50:04.018Z,7.60
2023-07-02T23:52:31.696Z,7.20
2023-07-02T23:54:59.306Z,7.50
2023-07-02T23:57:27.082Z,7.40
2023-07-02T23:59:54.670Z,8.00
